createdAt,value
2023-05-24T00:01:50.156Z,98989.94
2023-05-24T00:04:52.986Z,98984.53
2023-05-24T00:07:54.870Z,98986.19
2023-05-24T00:10:56.702Z,98991.59
2023-05-24T00:13:58.644Z,98997.00
2023-05-24T00:17:00.526Z,99001.59
2023-05-24T00:20:03.317Z,99007.84
2023-05-24T00:23:06.972Z,99010.53
2023-05-24T00:26:08.954Z,99012.41
2023-05-24T00:29:12.272Z,99015.34
2023-05-24T00:32:14.287Z,99015.75
2023-05-24T00:35:16.346Z,99020.75
2023-05-24T00:38:18.182Z,99016.41
2023-05-24T00:41:20.047Z,99022.00
2023-05-24T00:44:21.903Z,99020.78
2023-05-24T00:47:24.418Z,99028.47
2023-05-24T00:50:26.297Z,99018.72
2023-05-24T00:53:30.600Z,99014.56
2023-05-24T00:56:32.540Z,99012.47
2023-05-24T00:59:35.054Z,99011.66
2023-05-24T01:02:38.007Z,99006.44
2023-05-24T01:05:39.924Z,99009.38
2023-05-24T01:09:15.690Z,99011.03
2023-05-24T01:12:33.093Z,99004.16
2023-05-24T01:15:50.137Z,99007.50
2023-05-24T01:18:57.932Z,99000.44
2023-05-24T01:22:25.791Z,98999.78
2023-05-24T01:25:42.499Z,99008.72
2023-05-24T01:28:47.157Z,99010.59
2023-05-24T01:31:50.461Z,99012.28
2023-05-24T01:34:53.249Z,99014.97
2023-05-24T01:37:54.984Z,99008.72
2023-05-24T01:41:05.774Z,99000.22
2023-05-24T01:44:27.591Z,99005.19
2023-05-24T01:47:52.584Z,99005.59
2023-05-24T01:51:04.806Z,99014.56
2023-05-24T01:54:07.826Z,99016.22
2023-05-24T01:57:11.233Z,99018.72
2023-05-24T02:00:18.401Z,99022.03
2023-05-24T02:03:21.358Z,99029.31
2023-05-24T02:06:23.182Z,99028.88
2023-05-24T02:09:25.043Z,99027.63
2023-05-24T02:12:27.040Z,99025.56
2023-05-24T02:15:30.496Z,99037.63
2023-05-24T02:18:34.904Z,99027.19
2023-05-24T02:21:37.069Z,99033.22
2023-05-24T02:24:40.472Z,99035.72
2023-05-24T02:27:47.241Z,99038.22
2023-05-24T02:30:49.225Z,99040.50
2023-05-24T02:33:51.156Z,99035.50
2023-05-24T02:36:54.505Z,99040.69
2023-05-24T02:39:56.501Z,99039.22
2023-05-24T02:42:58.471Z,99043.78
2023-05-24T02:46:00.377Z,99045.03
2023-05-24T02:49:02.326Z,99039.81
2023-05-24T02:52:04.748Z,99035.44
2023-05-24T02:55:08.617Z,99045.81
2023-05-24T02:58:12.175Z,99044.34
2023-05-24T03:01:14.244Z,99051.00
2023-05-24T03:04:16.686Z,99045.16
2023-05-24T03:07:18.544Z,99043.69
2023-05-24T03:10:20.483Z,99043.03
2023-05-24T03:13:22.546Z,99042.16
2023-05-24T03:16:25.459Z,99042.13
2023-05-24T03:19:27.471Z,99035.66
2023-05-24T03:22:29.768Z,99042.31
2023-05-24T03:25:31.844Z,99042.69
2023-05-24T03:28:33.961Z,99046.03
2023-05-24T03:31:36.070Z,99038.50
2023-05-24T03:34:38.159Z,99038.94
2023-05-24T03:37:40.591Z,99037.91
2023-05-24T03:40:42.654Z,99034.75
2023-05-24T03:43:54.779Z,99033.28
2023-05-24T03:46:56.724Z,99040.75
2023-05-24T03:49:59.339Z,99045.28
2023-05-24T03:53:01.223Z,99047.53
2023-05-24T03:56:03.103Z,99044.75
2023-05-24T03:59:05.047Z,99047.25
2023-05-24T04:02:07.829Z,99053.50
2023-05-24T04:05:11.449Z,99046.53
2023-05-24T04:08:15.106Z,99047.91
2023-05-24T04:11:17.416Z,99046.34
2023-05-24T04:14:20.607Z,99041.94
2023-05-24T04:17:24.843Z,99045.63
2023-05-24T04:20:27.895Z,99042.19
2023-05-24T04:23:29.826Z,99042.34
2023-05-24T04:26:31.764Z,99038.28
2023-05-24T04:29:33.964Z,99044.78
2023-05-24T04:32:36.973Z,99041.94
2023-05-24T04:35:40.682Z,99046.16
2023-05-24T04:38:42.496Z,99044.34
2023-05-24T04:41:45.221Z,99036.50
2023-05-24T04:44:47.082Z,99048.22
2023-05-24T04:47:48.891Z,99048.50
2023-05-24T04:50:55.532Z,99050.69
2023-05-24T04:53:57.385Z,99057.69
2023-05-24T04:56:59.266Z,99052.25
2023-05-24T05:00:01.109Z,99060.38
2023-05-24T05:03:03.916Z,99070.91
2023-05-24T05:06:05.996Z,99069.31
2023-05-24T05:09:09.698Z,99067.91
2023-05-24T05:12:11.620Z,99074.09
2023-05-24T05:15:13.710Z,99075.91
2023-05-24T05:18:16.414Z,99064.06
2023-05-24T05:21:18.584Z,99053.06
2023-05-24T05:24:21.268Z,99052.09
2023-05-24T05:27:23.149Z,99046.63
2023-05-24T05:30:24.982Z,99057.28
2023-05-24T05:33:26.952Z,99059.94
2023-05-24T05:36:28.800Z,99069.03
2023-05-24T05:39:31.987Z,99068.41
2023-05-24T05:42:33.774Z,99071.16
2023-05-24T05:45:35.758Z,99069.13
2023-05-24T05:48:37.663Z,99079.22
2023-05-24T05:51:39.472Z,99081.63
2023-05-24T05:54:41.330Z,99075.34
2023-05-24T05:57:43.790Z,99079.81
2023-05-24T06:00:45.704Z,99088.44
2023-05-24T06:03:47.872Z,99084.28
2023-05-24T06:06:49.946Z,99086.59
2023-05-24T06:09:51.929Z,99092.31
2023-05-24T06:12:53.771Z,99095.44
2023-05-24T06:15:55.685Z,99092.56
2023-05-24T06:19:05.817Z,99091.56
2023-05-24T06:22:08.567Z,99085.31
2023-05-24T06:25:10.379Z,99083.59
2023-05-24T06:28:12.190Z,99085.19
2023-05-24T06:31:14.023Z,99092.41
2023-05-24T06:34:21.117Z,99086.25
2023-05-24T06:37:25.624Z,99080.00
2023-05-24T06:40:27.494Z,99079.31
2023-05-24T06:43:29.603Z,99080.75
2023-05-24T06:46:32.156Z,99078.59
2023-05-24T06:49:34.163Z,99081.91
2023-05-24T06:52:36.350Z,99086.88
2023-05-24T06:55:38.343Z,99081.72
2023-05-24T06:58:40.346Z,99078.25
2023-05-24T07:01:43.285Z,99081.72
2023-05-24T07:04:46.087Z,99092.75
2023-05-24T07:07:48.243Z,99083.69
2023-05-24T07:10:50.243Z,99080.66
2023-05-24T07:13:52.289Z,99088.91
2023-05-24T07:16:57.694Z,99082.53
2023-05-24T07:20:01.695Z,99097.44
2023-05-24T07:23:04.936Z,99089.41
2023-05-24T07:26:06.938Z,99090.41
2023-05-24T07:29:08.778Z,99094.44
2023-05-24T07:32:10.957Z,99094.34
2023-05-24T07:35:16.278Z,99104.06
2023-05-24T07:38:18.780Z,99099.53
2023-05-24T07:41:25.613Z,99101.25
2023-05-24T07:44:27.646Z,99107.06
2023-05-24T07:47:29.559Z,99115.97
2023-05-24T07:50:32.015Z,99126.16
2023-05-24T07:53:34.805Z,99130.84
2023-05-24T07:56:37.773Z,99132.91
2023-05-24T07:59:39.584Z,99157.25
2023-05-24T08:02:42.575Z,99177.78
2023-05-24T08:05:44.832Z,99173.97
2023-05-24T08:08:47.831Z,99177.00
2023-05-24T08:11:49.639Z,99173.22
2023-05-24T08:14:51.493Z,99163.56
2023-05-24T08:17:53.401Z,99153.09
2023-05-24T08:20:55.210Z,99140.50
2023-05-24T09:39:29.304Z,99112.81
2023-05-24T09:42:31.256Z,99113.03
2023-05-24T09:45:33.441Z,99119.91
2023-05-24T09:48:35.291Z,99121.91
2023-05-24T09:51:41.094Z,99121.66
2023-05-24T09:54:43.242Z,99121.34
2023-05-24T09:57:53.599Z,99123.16
2023-05-24T10:01:04.295Z,99128.41
2023-05-24T10:04:09.870Z,99125.19
2023-05-24T10:07:12.667Z,99133.81
2023-05-24T10:10:14.396Z,99139.34
2023-05-24T10:13:17.841Z,99130.81
2023-05-24T10:16:19.744Z,99132.53
2023-05-24T10:19:22.403Z,99132.03
2023-05-24T10:22:25.285Z,99127.91
2023-05-24T10:25:29.261Z,99125.69
2023-05-24T10:28:32.111Z,99126.78
2023-05-24T10:31:39.475Z,99133.44
2023-05-24T10:34:43.289Z,99129.66
2023-05-24T10:37:47.454Z,99127.47
2023-05-24T10:40:49.589Z,99125.28
2023-05-24T10:44:07.768Z,99123.66
2023-05-24T10:47:15.765Z,99118.00
2023-05-24T10:50:21.997Z,99116.19
2023-05-24T10:53:29.646Z,99110.97
2023-05-24T10:56:31.345Z,99106.09
2023-05-24T10:59:38.900Z,99105.81
2023-05-24T11:02:41.552Z,99104.75
2023-05-24T11:05:46.964Z,99101.19
2023-05-24T11:08:48.996Z,99115.16
2023-05-24T11:11:55.752Z,99111.88
2023-05-24T11:14:57.645Z,99104.16
2023-05-24T11:18:14.564Z,99104.19
2023-05-24T11:21:16.973Z,99106.66
2023-05-24T11:24:20.087Z,99092.94
2023-05-24T11:27:23.940Z,99092.09
2023-05-24T11:30:26.546Z,99097.59
2023-05-24T11:33:28.973Z,99086.59
2023-05-24T11:36:31.195Z,99083.56
2023-05-24T11:39:35.639Z,99086.06
2023-05-24T11:42:38.336Z,99083.84
2023-05-24T11:45:42.100Z,99075.84
2023-05-24T11:48:44.004Z,99082.94
2023-05-24T11:51:46.242Z,99065.91
2023-05-24T11:54:53.163Z,99072.19
2023-05-24T11:57:59.614Z,99058.97
2023-05-24T12:01:03.144Z,99058.38
2023-05-24T12:04:09.843Z,99044.38
2023-05-24T12:07:15.374Z,99028.47
2023-05-24T12:10:17.636Z,99027.31
2023-05-24T12:13:25.189Z,99028.63
2023-05-24T12:16:29.877Z,99023.16
2023-05-24T12:19:36.862Z,99028.81
2023-05-24T12:22:39.490Z,99023.81
2023-05-24T12:25:41.548Z,99031.19
2023-05-24T12:28:44.124Z,99041.69
2023-05-24T12:31:48.464Z,99044.88
2023-05-24T12:34:50.504Z,99048.09
2023-05-24T12:37:59.734Z,99044.19
2023-05-24T12:41:11.374Z,99049.38
2023-05-24T12:44:14.531Z,99041.94
2023-05-24T12:47:16.709Z,99042.75
2023-05-24T12:50:19.783Z,99037.28
2023-05-24T12:53:24.218Z,99036.47
2023-05-24T12:56:27.496Z,99041.94
2023-05-24T12:59:29.713Z,99023.69
2023-05-24T13:02:31.461Z,99029.47
2023-05-24T13:05:33.372Z,99023.75
2023-05-24T13:08:35.278Z,99029.53
2023-05-24T13:11:37.470Z,99024.34
2023-05-24T13:14:39.294Z,99030.94
2023-05-24T13:17:42.145Z,99026.84
2023-05-24T13:20:44.214Z,99034.41
2023-05-24T13:23:46.750Z,99035.69
2023-05-24T13:26:51.588Z,99047.97
2023-05-24T13:33:01.487Z,99059.03
2023-05-24T13:36:04.379Z,99060.22
2023-05-24T13:42:14.789Z,99074.88
2023-05-24T13:45:16.859Z,99079.47
2023-05-24T13:48:18.755Z,99084.88
2023-05-24T13:51:22.573Z,99096.13
2023-05-24T13:54:24.721Z,99088.25
2023-05-24T13:57:33.687Z,99087.94
2023-05-24T14:00:45.574Z,99085.44
2023-05-24T14:03:47.206Z,99081.13
2023-05-24T14:06:49.116Z,99077.94
2023-05-24T14:09:51.074Z,99076.41
2023-05-24T14:13:13.208Z,99068.16
2023-05-24T14:16:16.537Z,99066.13
2023-05-24T14:19:18.556Z,99069.50
2023-05-24T14:22:20.542Z,99067.47
2023-05-24T14:25:22.306Z,99071.78
2023-05-24T14:28:24.091Z,99077.38
2023-05-24T14:31:26.190Z,99076.66
2023-05-24T14:34:28.021Z,99087.50
2023-05-24T14:37:29.776Z,99086.81
2023-05-24T14:40:31.977Z,99083.25
2023-05-24T14:43:33.854Z,99079.44
2023-05-24T14:46:36.008Z,99069.28
2023-05-24T14:49:37.837Z,99059.16
2023-05-24T14:52:39.616Z,99060.41
2023-05-24T14:55:43.144Z,99064.16
2023-05-24T14:58:45.815Z,99081.50
2023-05-24T15:01:47.780Z,99092.97
2023-05-24T15:04:54.711Z,99097.13
2023-05-24T15:07:56.538Z,99104.72
2023-05-24T15:10:59.165Z,99096.44
2023-05-24T15:14:02.058Z,99097.50
2023-05-24T15:17:04.045Z,99104.03
2023-05-24T15:20:07.339Z,99105.69
2023-05-24T15:23:10.846Z,99115.41
2023-05-24T15:26:12.932Z,99119.22
2023-05-24T15:29:14.678Z,99124.09
2023-05-24T15:32:16.587Z,99129.53
2023-05-24T15:35:18.467Z,99129.75
2023-05-24T15:38:20.876Z,99127.16
2023-05-24T15:41:22.986Z,99127.03
2023-05-24T15:44:24.953Z,99128.84
2023-05-24T15:47:36.164Z,99128.97
2023-05-24T15:51:03.807Z,99121.50
2023-05-24T15:54:00.052Z,99126.63
2023-05-24T15:57:02.981Z,99126.03
2023-05-24T16:00:05.424Z,99127.34
2023-05-24T16:03:15.666Z,99120.47
2023-05-24T16:06:17.852Z,99123.47
2023-05-24T16:09:19.613Z,99123.09
2023-05-24T16:12:22.007Z,99121.69
2023-05-24T16:15:23.749Z,99116.94
2023-05-24T16:18:29.029Z,99123.72
2023-05-24T16:21:31.137Z,99123.34
2023-05-24T16:24:33.063Z,99128.78
2023-05-24T16:27:34.931Z,99125.00
2023-05-24T16:30:36.864Z,99132.59
2023-05-24T16:33:39.761Z,99133.41
2023-05-24T16:36:41.661Z,99143.59
2023-05-24T16:39:43.502Z,99148.09
2023-05-24T16:42:46.425Z,99151.75
2023-05-24T16:45:48.360Z,99153.31
2023-05-24T16:48:50.352Z,99157.16
2023-05-24T16:51:52.393Z,99147.34
2023-05-24T16:54:54.263Z,99148.63
2023-05-24T16:57:56.165Z,99142.47
2023-05-24T17:00:58.751Z,99151.22
2023-05-24T17:04:00.941Z,99144.97
2023-05-24T17:07:02.927Z,99147.69
2023-05-24T17:10:05.143Z,99133.59
2023-05-24T17:13:07.101Z,99134.28
2023-05-24T17:16:10.877Z,99130.16
2023-05-24T17:19:14.022Z,99125.63
2023-05-24T17:22:16.055Z,99129.16
2023-05-24T17:25:18.016Z,99129.50
2023-05-24T17:28:19.809Z,99125.56
2023-05-24T17:31:21.846Z,99129.22
2023-05-24T17:34:23.859Z,99128.84
2023-05-24T17:37:25.640Z,99122.22
2023-05-24T17:40:27.486Z,99118.06
2023-05-24T17:43:31.662Z,99119.34
2023-05-24T17:46:36.031Z,99115.22
2023-05-24T17:49:38.679Z,99120.06
2023-05-24T17:52:40.665Z,99115.03
2023-05-24T17:55:42.732Z,99122.59
2023-05-24T17:58:46.809Z,99125.56
2023-05-24T18:01:49.399Z,99120.94
2023-05-24T18:04:52.749Z,99126.84
2023-05-24T18:07:54.712Z,99126.00
2023-05-24T18:10:57.133Z,99127.53
2023-05-24T18:14:00.431Z,99122.41
2023-05-24T18:17:02.339Z,99121.44
2023-05-24T18:20:04.574Z,99126.03
2023-05-24T18:23:06.363Z,99115.63
2023-05-24T18:26:09.957Z,99106.50
2023-05-24T18:29:15.976Z,99113.00
2023-05-24T18:32:17.931Z,99105.53
2023-05-24T18:35:22.453Z,99110.59
2023-05-24T18:38:24.426Z,99103.94
2023-05-24T18:41:26.229Z,99110.28
2023-05-24T18:44:28.173Z,99107.56
2023-05-24T18:47:31.193Z,99113.47
2023-05-24T18:50:33.119Z,99116.63
2023-05-24T18:53:35.951Z,99115.66
2023-05-24T18:56:38.063Z,99115.03
2023-05-24T18:59:39.897Z,99111.94
2023-05-24T19:02:41.963Z,99120.56
2023-05-24T19:05:44.344Z,99122.66
2023-05-24T19:08:47.787Z,99118.50
2023-05-24T19:11:49.698Z,99125.22
2023-05-24T19:14:51.538Z,99127.78
2023-05-24T19:17:55.689Z,99128.22
2023-05-24T19:20:57.662Z,99131.38
2023-05-24T19:23:59.835Z,99126.38
2023-05-24T19:27:01.754Z,99126.38
2023-05-24T19:30:05.232Z,99126.16
2023-05-24T19:33:08.532Z,99126.38
2023-05-24T19:36:10.769Z,99121.19
2023-05-24T19:39:12.733Z,99119.97
2023-05-24T19:42:14.990Z,99120.19
2023-05-24T19:45:16.919Z,99124.19
2023-05-24T19:48:18.825Z,99121.69
2023-05-24T19:51:21.143Z,99128.78
2023-05-24T19:54:23.072Z,99127.72
2023-05-24T19:57:24.901Z,99138.56
2023-05-24T20:00:26.751Z,99135.88
2023-05-24T20:03:28.848Z,99142.94
2023-05-24T20:06:31.502Z,99137.53
2023-05-24T20:09:33.294Z,99138.56
2023-05-24T20:12:35.124Z,99138.34
2023-05-24T20:15:37.096Z,99140.25
2023-05-24T20:18:39.261Z,99134.19
2023-05-24T20:21:41.113Z,99136.09
2023-05-24T20:24:42.918Z,99139.63
2023-05-24T20:27:44.751Z,99134.19
2023-05-24T20:30:46.647Z,99145.88
2023-05-24T20:33:51.477Z,99149.66
2023-05-24T20:36:53.254Z,99137.97
2023-05-24T20:39:55.685Z,99142.56
2023-05-24T20:42:57.825Z,99145.06
2023-05-24T20:46:00.200Z,99140.47
2023-05-24T20:49:02.131Z,99145.06
2023-05-24T20:52:04.635Z,99148.81
2023-05-24T20:55:07.031Z,99159.06
2023-05-24T20:58:08.816Z,99166.00
2023-05-24T21:01:10.660Z,99156.41
2023-05-24T21:04:12.573Z,99156.66
2023-05-24T21:07:14.495Z,99154.97
2023-05-24T21:10:20.058Z,99147.66
2023-05-24T21:13:22.795Z,99148.50
2023-05-24T21:16:25.301Z,99148.50
2023-05-24T21:19:27.123Z,99144.78
2023-05-24T21:22:28.988Z,99144.56
2023-05-24T21:25:30.879Z,99138.53
2023-05-24T21:28:32.754Z,99138.16
2023-05-24T21:31:35.906Z,99145.69
2023-05-24T21:34:37.911Z,99143.63
2023-05-24T21:37:39.822Z,99142.41
2023-05-24T21:40:41.718Z,99139.69
2023-05-24T21:43:43.731Z,99139.09
2023-05-24T21:46:45.677Z,99135.59
2023-05-24T21:49:47.685Z,99147.50
2023-05-24T21:52:49.450Z,99155.03
2023-05-24T21:55:51.442Z,99150.88
2023-05-24T21:58:53.576Z,99155.69
2023-05-24T22:01:55.782Z,99151.53
2023-05-24T22:04:57.833Z,99163.66
2023-05-24T22:07:59.636Z,99161.38
2023-05-24T22:11:01.533Z,99163.84
2023-05-24T22:14:03.544Z,99161.38
2023-05-24T22:17:05.752Z,99156.16
2023-05-24T22:20:09.069Z,99156.16
2023-05-24T22:23:12.059Z,99158.88
2023-05-24T22:26:16.825Z,99159.09
2023-05-24T22:29:20.112Z,99162.63
2023-05-24T22:32:22.020Z,99158.25
2023-05-24T22:35:23.971Z,99155.56
2023-05-24T22:38:25.762Z,99162.25
2023-05-24T22:41:28.260Z,99163.28
2023-05-24T22:44:30.369Z,99163.50
2023-05-24T22:47:33.319Z,99163.28
2023-05-24T22:50:36.018Z,99168.31
2023-05-24T22:53:39.572Z,99168.94
2023-05-24T22:56:41.714Z,99158.91
2023-05-24T22:59:45.852Z,99156.00
2023-05-24T23:02:47.722Z,99150.56
2023-05-24T23:05:53.619Z,99151.00
2023-05-24T23:08:55.636Z,99151.84
2023-05-24T23:11:58.964Z,99148.91
2023-05-24T23:15:00.862Z,99153.72
2023-05-24T23:18:05.800Z,99150.59
2023-05-24T23:21:10.101Z,99157.69
2023-05-24T23:24:14.714Z,99144.75
2023-05-24T23:27:16.723Z,99146.41
2023-05-24T23:30:18.548Z,99150.59
2023-05-24T23:33:20.433Z,99148.94
2023-05-24T23:36:22.273Z,99155.19
2023-05-24T23:39:24.090Z,99159.19
2023-05-24T23:42:26.407Z,99159.41
2023-05-24T23:45:28.250Z,99159.41
2023-05-24T23:48:30.073Z,99157.72
2023-05-24T23:51:34.895Z,99151.91
2023-05-24T23:54:36.937Z,99145.88
2023-05-24T23:57:41.950Z,99149.59
